createdAt,value
2018-07-13T00:01:24.476Z,19.60
2018-07-13T00:06:28.220Z,19.50
2018-07-13T00:11:31.958Z,19.50
2018-07-13T00:16:36.553Z,19.50
2018-07-13T00:21:41.288Z,19.50
2018-07-13T00:26:45.612Z,19.50
2018-07-13T00:31:55.852Z,19.60
2018-07-13T00:37:04.690Z,19.60
2018-07-13T00:42:08.425Z,19.60
2018-07-13T00:47:12.111Z,19.50
2018-07-13T00:52:15.749Z,19.50
2018-07-13T00:57:25.553Z,19.40
2018-07-13T01:02:29.182Z,19.50
2018-07-13T01:07:33.970Z,19.30
2018-07-13T01:12:37.463Z,19.40
2018-07-13T01:17:41.111Z,19.40
2018-07-13T01:27:50.016Z,19.50
2018-07-13T01:32:54.841Z,19.50
2018-07-13T01:37:58.460Z,19.40
2018-07-13T01:43:02.101Z,19.30
2018-07-13T01:48:09.209Z,19.10
2018-07-13T01:53:16.482Z,19.00
2018-07-13T01:58:21.120Z,19.00
2018-07-13T02:03:25.660Z,18.90
2018-07-13T02:08:29.124Z,18.80
2018-07-13T02:13:32.670Z,18.70
2018-07-13T02:18:36.141Z,18.50
2018-07-13T02:23:40.895Z,18.50
2018-07-13T02:28:47.416Z,18.50
2018-07-13T02:38:54.490Z,18.50
2018-07-13T02:43:58.229Z,18.40
2018-07-13T02:49:01.983Z,18.30
2018-07-13T02:59:33.856Z,18.40
2018-07-13T03:04:38.431Z,18.30
2018-07-13T03:09:42.863Z,18.30
2018-07-13T03:14:47.346Z,18.40
2018-07-13T03:19:51.076Z,18.40
2018-07-13T03:29:59.556Z,18.30
2018-07-13T03:35:04.482Z,18.30
2018-07-13T03:45:36.603Z,18.50
2018-07-13T03:50:40.356Z,18.50
2018-07-13T04:00:50.320Z,18.60
2018-07-13T04:05:53.835Z,18.50
2018-07-13T04:16:00.566Z,18.40
2018-07-13T04:21:04.255Z,18.30
2018-07-13T04:26:07.956Z,18.40
2018-07-13T04:31:11.940Z,18.50
2018-07-13T04:36:16.412Z,18.70
2018-07-13T04:41:22.668Z,18.80
2018-07-13T04:46:26.389Z,18.90
2018-07-13T04:51:30.914Z,19.00
2018-07-13T04:56:34.656Z,19.20
2018-07-13T05:01:38.269Z,19.40
2018-07-13T05:06:42.101Z,19.50
2018-07-13T05:11:46.116Z,19.60
2018-07-13T05:16:53.983Z,19.70
2018-07-13T05:21:57.626Z,19.90
2018-07-13T05:27:07.051Z,20.00
2018-07-13T05:32:11.459Z,20.10
2018-07-13T05:37:15.109Z,20.10
2018-07-13T05:42:18.785Z,20.20
2018-07-13T05:47:22.501Z,20.20
2018-07-13T05:52:27.611Z,20.40
2018-07-13T05:57:31.393Z,20.50
2018-07-13T06:02:39.737Z,20.70
2018-07-13T06:07:43.384Z,20.60
2018-07-13T06:12:49.520Z,20.60
2018-07-13T06:17:53.038Z,20.90
2018-07-13T06:22:58.065Z,21.20
2018-07-13T06:28:01.810Z,21.60
2018-07-13T06:33:06.136Z,21.90
2018-07-13T06:38:10.862Z,21.90
2018-07-13T06:43:14.609Z,22.00
2018-07-13T06:48:20.408Z,22.00
2018-07-13T06:53:24.862Z,22.10
2018-07-13T06:59:08.471Z,22.20
2018-07-13T07:04:30.432Z,22.20
2018-07-13T07:09:35.531Z,22.20
2018-07-13T07:14:38.957Z,22.50
2018-07-13T07:25:34.442Z,23.10
2018-07-13T07:30:55.647Z,23.50
2018-07-13T07:36:01.304Z,23.80
2018-07-13T07:41:05.914Z,24.20
2018-07-13T07:46:09.487Z,24.10
2018-07-13T07:51:13.046Z,24.60
2018-07-13T07:56:16.704Z,24.70
2018-07-13T08:01:20.643Z,24.90
2018-07-13T08:06:24.728Z,25.00
2018-07-13T08:11:28.414Z,25.40
2018-07-13T08:16:35.584Z,25.80
2018-07-13T08:21:42.399Z,26.30
2018-07-13T08:26:54.747Z,26.50
2018-07-13T08:31:58.515Z,26.80
2018-07-13T08:37:02.112Z,27.30
2018-07-13T08:42:11.845Z,27.40
2018-07-13T08:47:16.469Z,27.60
2018-07-13T09:03:15.777Z,27.70
2018-07-13T09:13:47.262Z,27.90
2018-07-13T09:18:52.638Z,28.10
2018-07-13T09:23:56.563Z,28.40
2018-07-13T09:29:01.225Z,28.30
2018-07-13T09:34:06.163Z,28.60
2018-07-13T09:39:19.985Z,28.70
2018-07-13T09:44:24.923Z,29.00
2018-07-13T09:49:28.865Z,29.30
2018-07-13T09:54:34.860Z,29.60
2018-07-13T09:59:39.004Z,30.10
2018-07-13T10:04:43.928Z,30.20
2018-07-13T10:09:47.713Z,30.60
2018-07-13T10:14:51.821Z,30.30
2018-07-13T10:19:56.891Z,30.70
2018-07-13T10:25:04.312Z,31.10
2018-07-13T10:30:11.972Z,31.10
2018-07-13T10:35:15.880Z,31.50
2018-07-13T10:40:19.746Z,31.50
2018-07-13T10:45:57.561Z,31.20
2018-07-13T10:56:49.592Z,31.90
2018-07-13T11:01:55.220Z,31.90
2018-07-13T11:12:54.805Z,32.50
2018-07-13T11:17:58.538Z,32.70
2018-07-13T11:23:02.237Z,32.90
2018-07-13T11:28:05.921Z,33.20
2018-07-13T11:33:10.630Z,33.50
2018-07-13T11:38:14.421Z,33.30
2018-07-13T11:55:17.542Z,32.80
2018-07-13T12:00:21.351Z,33.60
2018-07-13T12:05:26.816Z,33.40
2018-07-13T12:10:35.966Z,32.50
2018-07-13T12:15:39.878Z,32.80
2018-07-13T12:31:40.829Z,33.90
2018-07-13T12:42:30.588Z,33.90
2018-07-13T12:47:36.512Z,34.10
2018-07-13T12:52:40.976Z,33.80
2018-07-13T12:57:58.226Z,33.40
2018-07-13T13:03:01.917Z,33.40
2018-07-13T13:08:09.861Z,33.50
2018-07-13T13:13:14.024Z,33.80
2018-07-13T13:18:22.199Z,32.60
2018-07-13T13:23:25.909Z,32.40
2018-07-13T13:28:29.613Z,32.50
2018-07-13T13:33:38.298Z,33.10
2018-07-13T13:38:42.823Z,33.40
2018-07-13T13:43:47.098Z,34.00
2018-07-13T13:56:00.347Z,33.70
2018-07-13T14:02:07.469Z,33.90
2018-07-13T14:07:11.479Z,34.50
2018-07-13T14:12:20.268Z,34.30
2018-07-13T14:17:24.911Z,33.80
2018-07-13T14:22:29.625Z,33.90
2018-07-13T14:27:36.627Z,33.30
2018-07-13T14:32:40.264Z,33.50
2018-07-13T14:37:44.890Z,33.50
2018-07-13T14:42:50.364Z,33.50
2018-07-13T14:47:56.119Z,33.90
2018-07-13T14:52:59.927Z,33.50
2018-07-13T14:58:03.389Z,32.60
2018-07-13T15:03:13.267Z,32.10
2018-07-13T15:08:17.691Z,31.30
2018-07-13T15:13:21.301Z,31.30
2018-07-13T15:18:24.656Z,31.50
2018-07-13T15:23:28.541Z,30.90
2018-07-13T15:28:35.448Z,30.90
2018-07-13T15:33:39.061Z,30.40
2018-07-13T15:44:08.600Z,29.30
2018-07-13T15:49:12.308Z,29.10
2018-07-13T15:54:15.895Z,28.90
2018-07-13T15:59:19.501Z,29.00
2018-07-13T16:04:22.836Z,28.80
2018-07-13T16:09:29.406Z,29.20
2018-07-13T16:14:32.966Z,29.80
2018-07-13T16:19:37.654Z,30.10
2018-07-13T16:24:43.840Z,30.10
2018-07-13T16:29:47.620Z,30.40
2018-07-13T16:34:51.076Z,29.70
2018-07-13T16:39:54.932Z,29.70
2018-07-13T16:44:59.811Z,29.70
2018-07-13T16:50:05.456Z,29.80
2018-07-13T16:55:08.893Z,29.80
2018-07-13T17:00:13.093Z,29.70
2018-07-13T17:05:16.647Z,29.70
2018-07-13T17:10:20.499Z,30.30
2018-07-13T17:15:24.008Z,30.90
2018-07-13T17:20:27.409Z,31.00
2018-07-13T17:25:30.731Z,31.70
2018-07-13T17:30:34.156Z,31.40
2018-07-13T17:35:37.500Z,30.90
2018-07-13T17:40:40.981Z,30.30
2018-07-13T17:45:44.477Z,29.70
2018-07-13T17:50:51.832Z,29.30
2018-07-13T17:55:55.349Z,29.10
2018-07-13T18:00:59.092Z,28.80
2018-07-13T18:06:02.394Z,28.90
2018-07-13T18:11:06.604Z,29.60
2018-07-13T18:22:28.951Z,29.20
2018-07-13T18:33:01.218Z,28.50
2018-07-13T18:38:09.803Z,28.40
2018-07-13T18:43:16.556Z,28.10
2018-07-13T18:48:22.391Z,28.00
2018-07-13T18:53:28.605Z,27.70
2018-07-13T18:58:37.993Z,27.30
2018-07-13T19:03:57.544Z,27.00
2018-07-13T19:09:08.723Z,26.60
2018-07-13T19:14:14.884Z,26.20
2018-07-13T19:24:28.430Z,25.60
2018-07-13T19:29:31.939Z,25.30
2018-07-13T19:34:39.795Z,25.10
2018-07-13T19:39:43.321Z,24.80
2018-07-13T19:44:46.740Z,24.50
2018-07-13T19:49:50.236Z,24.20
2018-07-13T19:54:53.588Z,24.10
2018-07-13T20:00:01.622Z,23.80
2018-07-13T20:05:05.173Z,23.60
2018-07-13T20:10:21.643Z,23.40
2018-07-13T20:15:25.317Z,23.20
2018-07-13T20:20:31.142Z,23.00
2018-07-13T20:25:34.649Z,22.80
2018-07-13T20:30:38.102Z,22.50
2018-07-13T20:35:42.561Z,22.20
2018-07-13T20:40:46.729Z,22.10
2018-07-13T20:45:50.320Z,22.00
2018-07-13T20:50:53.632Z,22.00
2018-07-13T20:55:58.684Z,22.00
2018-07-13T21:01:02.029Z,21.90
2018-07-13T21:06:05.671Z,21.70
2018-07-13T21:11:09.253Z,21.50
2018-07-13T21:16:12.671Z,21.40
2018-07-13T21:21:15.982Z,21.30
2018-07-13T21:26:19.571Z,21.10
2018-07-13T21:31:24.064Z,21.00
2018-07-13T21:36:31.243Z,20.90
2018-07-13T21:41:40.188Z,20.90
2018-07-13T21:46:44.414Z,20.80
2018-07-13T21:51:47.735Z,20.70
2018-07-13T21:56:55.448Z,20.70
2018-07-13T22:02:00.843Z,20.60
2018-07-13T22:07:05.035Z,20.50
2018-07-13T22:12:08.411Z,20.40
2018-07-13T22:17:12.344Z,20.20
2018-07-13T22:22:17.012Z,20.00
2018-07-13T22:27:21.240Z,20.00
2018-07-13T22:32:27.576Z,20.00
2018-07-13T22:37:31.016Z,19.90
2018-07-13T22:42:35.456Z,19.90
2018-07-13T22:47:41.526Z,19.70
2018-07-13T22:52:50.950Z,19.60
2018-07-13T22:57:54.789Z,19.60
2018-07-13T23:03:01.879Z,19.50
2018-07-13T23:08:05.235Z,19.50
2018-07-13T23:13:09.665Z,19.50
2018-07-13T23:18:14.026Z,19.50
2018-07-13T23:23:17.549Z,19.50
2018-07-13T23:28:20.906Z,19.50
2018-07-13T23:33:24.271Z,19.40
2018-07-13T23:38:27.686Z,19.40
2018-07-13T23:43:33.387Z,19.30
2018-07-13T23:48:36.720Z,19.30
2018-07-13T23:53:39.972Z,19.30
2018-07-13T23:58:44.577Z,19.20
